sensor_id;sensor_type;location;lat;lon;timestamp;pressure;altitude;pressure_sealevel;temperature;humidity
21096;BME280;10706;49.036;12.112;2022-10-26T00:00:43;97974.59;;;7.33;100.00
21096;BME280;10706;49.036;12.112;2022-10-26T00:03:09;97972.94;;;7.38;100.00
21096;BME280;10706;49.036;12.112;2022-10-26T00:05:35;97970.13;;;7.27;100.00
21096;BME280;10706;49.036;12.112;2022-10-26T00:08:02;97969.13;;;7.21;100.00
21096;BME280;10706;49.036;12.112;2022-10-26T00:10:27;97973.81;;;7.19;100.00
21096;BME280;10706;49.036;12.112;2022-10-26T00:12:54;97973.00;;;7.18;100.00
21096;BME280;10706;49.036;12.112;2022-10-26T00:15:20;97971.78;;;7.21;100.00
21096;BME280;10706;49.036;12.112;2022-10-26T00:17:47;97973.00;;;7.25;100.00
21096;BME280;10706;49.036;12.112;2022-10-26T00:20:13;97976.25;;;7.20;100.00
21096;BME280;10706;49.036;12.112;2022-10-26T00:22:39;97971.16;;;7.19;100.00
21096;BME280;10706;49.036;12.112;2022-10-26T00:25:05;97971.78;;;7.14;100.00
21096;BME280;10706;49.036;12.112;2022-10-26T00:27:32;97970.38;;;7.12;100.00
21096;BME280;10706;49.036;12.112;2022-10-26T00:30:00;97973.00;;;7.05;100.00
21096;BME280;10706;49.036;12.112;2022-10-26T00:32:26;97969.16;;;7.08;100.00
21096;BME280;10706;49.036;12.112;2022-10-26T00:34:52;97970.38;;;7.12;100.00
21096;BME280;10706;49.036;12.112;2022-10-26T00:37:18;97968.72;;;7.11;100.00
21096;BME280;10706;49.036;12.112;2022-10-26T00:39:45;97972.63;;;7.08;100.00
21096;BME280;10706;49.036;12.112;2022-10-26T00:42:17;97968.31;;;7.14;100.00
21096;BME280;10706;49.036;12.112;2022-10-26T00:44:54;97974.84;;;7.25;100.00
21096;BME280;10706;49.036;12.112;2022-10-26T00:47:37;97980.31;;;7.30;100.00
21096;BME280;10706;49.036;12.112;2022-10-26T00:50:38;97965.19;;;7.44;100.00
21096;BME280;10706;49.036;12.112;2022-10-26T00:53:06;97959.88;;;7.44;100.00
21096;BME280;10706;49.036;12.112;2022-10-26T00:55:37;97954.75;;;7.42;100.00
21096;BME280;10706;49.036;12.112;2022-10-26T00:58:07;97957.22;;;7.44;100.00
21096;BME280;10706;49.036;12.112;2022-10-26T01:00:34;97954.34;;;7.45;100.00
21096;BME280;10706;49.036;12.112;2022-10-26T01:03:05;97951.06;;;7.50;100.00
21096;BME280;10706;49.036;12.112;2022-10-26T01:05:32;97949.19;;;7.57;100.00
21096;BME280;10706;49.036;12.112;2022-10-26T01:07:59;97945.88;;;7.62;100.00
21096;BME280;10706;49.036;12.112;2022-10-26T01:10:26;97938.75;;;7.62;100.00
21096;BME280;10706;49.036;12.112;2022-10-26T01:12:54;97941.78;;;7.66;100.00
21096;BME280;10706;49.036;12.112;2022-10-26T01:16:12;97931.16;;;7.66;100.00
21096;BME280;10706;49.036;12.112;2022-10-26T01:21:57;97932.84;;;7.53;100.00
21096;BME280;10706;49.036;12.112;2022-10-26T01:27:46;97935.97;;;7.44;100.00
21096;BME280;10706;49.036;12.112;2022-10-26T01:30:46;97939.06;;;7.34;100.00
21096;BME280;10706;49.036;12.112;2022-10-26T01:44:23;97933.72;;;7.40;100.00
21096;BME280;10706;49.036;12.112;2022-10-26T01:46:53;97925.75;;;7.40;100.00
21096;BME280;10706;49.036;12.112;2022-10-26T01:49:24;97933.06;;;7.52;100.00
21096;BME280;10706;49.036;12.112;2022-10-26T01:51:51;97924.03;;;7.59;100.00
21096;BME280;10706;49.036;12.112;2022-10-26T01:54:17;97919.72;;;7.65;100.00
21096;BME280;10706;49.036;12.112;2022-10-26T01:56:50;97921.50;;;7.71;100.00
21096;BME280;10706;49.036;12.112;2022-10-26T01:59:39;97909.88;;;7.66;100.00
21096;BME280;10706;49.036;12.112;2022-10-26T02:13:26;97905.06;;;7.88;100.00
21096;BME280;10706;49.036;12.112;2022-10-26T02:16:15;97910.84;;;7.85;100.00
21096;BME280;10706;49.036;12.112;2022-10-26T02:19:00;97897.88;;;7.95;100.00
21096;BME280;10706;49.036;12.112;2022-10-26T02:21:36;97883.72;;;8.01;100.00
21096;BME280;10706;49.036;12.112;2022-10-26T02:24:05;97874.66;;;8.09;100.00
21096;BME280;10706;49.036;12.112;2022-10-26T02:26:33;97888.63;;;8.04;100.00
21096;BME280;10706;49.036;12.112;2022-10-26T02:29:05;97916.75;;;7.87;100.00
21096;BME280;10706;49.036;12.112;2022-10-26T02:31:33;97958.06;;;7.83;100.00
21096;BME280;10706;49.036;12.112;2022-10-26T02:34:04;97950.53;;;7.73;100.00
21096;BME280;10706;49.036;12.112;2022-10-26T02:36:35;97955.69;;;7.68;100.00
21096;BME280;10706;49.036;12.112;2022-10-26T02:39:04;97957.91;;;7.71;100.00
21096;BME280;10706;49.036;12.112;2022-10-26T02:41:33;97954.19;;;7.78;100.00
21096;BME280;10706;49.036;12.112;2022-10-26T02:44:25;97942.28;;;7.88;100.00
21096;BME280;10706;49.036;12.112;2022-10-26T02:46:53;97941.03;;;7.97;100.00
21096;BME280;10706;49.036;12.112;2022-10-26T02:49:20;97935.22;;;8.07;100.00
21096;BME280;10706;49.036;12.112;2022-10-26T02:52:01;97941.31;;;8.14;100.00
21096;BME280;10706;49.036;12.112;2022-10-26T02:57:23;97923.88;;;8.25;100.00
21096;BME280;10706;49.036;12.112;2022-10-26T02:59:51;97916.66;;;8.32;100.00
21096;BME280;10706;49.036;12.112;2022-10-26T03:02:19;97919.03;;;8.40;100.00
21096;BME280;10706;49.036;12.112;2022-10-26T03:04:45;97913.34;;;8.43;100.00
21096;BME280;10706;49.036;12.112;2022-10-26T03:07:20;97914.09;;;8.50;100.00
21096;BME280;10706;49.036;12.112;2022-10-26T03:09:46;97913.06;;;8.51;100.00
21096;BME280;10706;49.036;12.112;2022-10-26T03:12:12;97901.78;;;8.56;100.00
21096;BME280;10706;49.036;12.112;2022-10-26T03:14:38;97907.91;;;8.56;100.00
21096;BME280;10706;49.036;12.112;2022-10-26T03:17:06;97910.34;;;8.58;100.00
21096;BME280;10706;49.036;12.112;2022-10-26T03:19:32;97914.03;;;8.57;100.00
21096;BME280;10706;49.036;12.112;2022-10-26T03:21:58;97911.59;;;8.55;100.00
21096;BME280;10706;49.036;12.112;2022-10-26T03:24:24;97921.03;;;8.51;100.00
21096;BME280;10706;49.036;12.112;2022-10-26T03:26:50;97924.97;;;8.49;100.00
21096;BME280;10706;49.036;12.112;2022-10-26T03:29:16;97912.03;;;8.52;100.00
21096;BME280;10706;49.036;12.112;2022-10-26T03:31:42;97916.44;;;8.65;100.00
21096;BME280;10706;49.036;12.112;2022-10-26T03:34:08;97916.88;;;8.62;100.00
21096;BME280;10706;49.036;12.112;2022-10-26T03:36:34;97919.44;;;8.69;100.00
21096;BME280;10706;49.036;12.112;2022-10-26T03:39:01;97919.63;;;8.74;100.00
21096;BME280;10706;49.036;12.112;2022-10-26T03:41:27;97921.78;;;8.84;100.00
21096;BME280;10706;49.036;12.112;2022-10-26T03:43:53;97921.28;;;8.93;100.00
21096;BME280;10706;49.036;12.112;2022-10-26T03:46:19;97915.66;;;9.02;100.00
21096;BME280;10706;49.036;12.112;2022-10-26T03:48:45;97922.56;;;9.09;100.00
21096;BME280;10706;49.036;12.112;2022-10-26T03:51:11;97927.00;;;9.15;100.00
21096;BME280;10706;49.036;12.112;2022-10-26T03:53:37;97927.53;;;9.24;100.00
21096;BME280;10706;49.036;12.112;2022-10-26T03:56:03;97928.72;;;9.28;100.00
21096;BME280;10706;49.036;12.112;2022-10-26T03:58:29;97921.88;;;9.32;100.00
21096;BME280;10706;49.036;12.112;2022-10-26T04:00:55;97919.38;;;9.38;100.00
21096;BME280;10706;49.036;12.112;2022-10-26T04:03:22;97914.78;;;9.45;100.00
21096;BME280;10706;49.036;12.112;2022-10-26T04:05:48;97912.72;;;9.47;100.00
21096;BME280;10706;49.036;12.112;2022-10-26T04:08:14;97910.63;;;9.49;100.00
21096;BME280;10706;49.036;12.112;2022-10-26T04:10:40;97905.59;;;9.59;100.00
21096;BME280;10706;49.036;12.112;2022-10-26T04:13:07;97918.69;;;9.61;100.00
21096;BME280;10706;49.036;12.112;2022-10-26T04:15:33;97916.28;;;9.59;100.00
21096;BME280;10706;49.036;12.112;2022-10-26T04:18:01;97908.38;;;9.64;100.00
21096;BME280;10706;49.036;12.112;2022-10-26T04:20:28;97912.34;;;9.62;100.00
21096;BME280;10706;49.036;12.112;2022-10-26T04:23:00;97914.31;;;9.66;100.00
21096;BME280;10706;49.036;12.112;2022-10-26T04:25:28;97919.63;;;9.66;100.00
21096;BME280;10706;49.036;12.112;2022-10-26T04:27:54;97923.50;;;9.70;100.00
21096;BME280;10706;49.036;12.112;2022-10-26T04:30:21;97931.84;;;9.74;100.00
21096;BME280;10706;49.036;12.112;2022-10-26T04:32:46;97937.19;;;9.74;100.00
21096;BME280;10706;49.036;12.112;2022-10-26T04:35:13;97938.59;;;9.77;100.00
21096;BME280;10706;49.036;12.112;2022-10-26T04:37:39;97941.63;;;9.80;100.00
21096;BME280;10706;49.036;12.112;2022-10-26T04:40:05;97946.28;;;9.85;100.00
21096;BME280;10706;49.036;12.112;2022-10-26T04:42:38;97942.22;;;9.82;100.00
21096;BME280;10706;49.036;12.112;2022-10-26T04:45:05;97938.06;;;9.86;100.00
21096;BME280;10706;49.036;12.112;2022-10-26T04:47:31;97930.28;;;9.85;100.00
21096;BME280;10706;49.036;12.112;2022-10-26T04:49:57;97938.44;;;9.90;100.00
21096;BME280;10706;49.036;12.112;2022-10-26T04:52:23;97924.50;;;9.88;100.00
21096;BME280;10706;49.036;12.112;2022-10-26T04:54:49;97937.50;;;9.96;100.00
21096;BME280;10706;49.036;12.112;2022-10-26T04:57:15;97940.06;;;9.91;100.00
21096;BME280;10706;49.036;12.112;2022-10-26T04:59:41;97942.97;;;9.89;100.00
21096;BME280;10706;49.036;12.112;2022-10-26T05:02:07;97942.97;;;9.89;100.00
21096;BME280;10706;49.036;12.112;2022-10-26T05:04:33;97951.31;;;9.93;100.00
21096;BME280;10706;49.036;12.112;2022-10-26T05:06:59;97953.16;;;9.92;100.00
21096;BME280;10706;49.036;12.112;2022-10-26T05:09:25;97963.81;;;9.92;100.00
21096;BME280;10706;49.036;12.112;2022-10-26T05:11:52;97965.69;;;9.92;100.00
21096;BME280;10706;49.036;12.112;2022-10-26T05:14:18;97961.09;;;9.99;100.00
21096;BME280;10706;49.036;12.112;2022-10-26T05:16:43;97956.78;;;9.98;100.00
21096;BME280;10706;49.036;12.112;2022-10-26T05:19:09;97944.63;;;10.02;100.00
21096;BME280;10706;49.036;12.112;2022-10-26T05:21:35;97934.41;;;9.99;100.00
21096;BME280;10706;49.036;12.112;2022-10-26T05:24:01;97936.28;;;9.99;100.00
21096;BME280;10706;49.036;12.112;2022-10-26T05:26:27;97949.25;;;9.95;100.00
21096;BME280;10706;49.036;12.112;2022-10-26T05:28:53;97959.69;;;9.97;100.00
21096;BME280;10706;49.036;12.112;2022-10-26T05:31:19;97961.31;;;9.98;100.00
21096;BME280;10706;49.036;12.112;2022-10-26T05:33:50;97970.38;;;9.97;100.00
21096;BME280;10706;49.036;12.112;2022-10-26T05:36:19;97981.03;;;9.97;100.00
21096;BME280;10706;49.036;12.112;2022-10-26T05:38:45;97975.44;;;9.98;100.00
21096;BME280;10706;49.036;12.112;2022-10-26T05:41:11;97964.34;;;10.01;100.00
21096;BME280;10706;49.036;12.112;2022-10-26T05:43:37;97972.84;;;10.10;100.00
21096;BME280;10706;49.036;12.112;2022-10-26T05:46:03;97972.75;;;10.17;100.00
21096;BME280;10706;49.036;12.112;2022-10-26T05:48:29;97973.22;;;10.14;100.00
21096;BME280;10706;49.036;12.112;2022-10-26T05:50:59;97975.88;;;10.14;100.00
21096;BME280;10706;49.036;12.112;2022-10-26T05:53:26;97979.13;;;10.16;100.00
21096;BME280;10706;49.036;12.112;2022-10-26T05:55:53;97968.09;;;10.12;100.00
21096;BME280;10706;49.036;12.112;2022-10-26T05:58:19;97985.28;;;10.16;100.00
21096;BME280;10706;49.036;12.112;2022-10-26T06:01:07;98000.59;;;10.21;100.00
21096;BME280;10706;49.036;12.112;2022-10-26T06:03:51;98003.25;;;10.21;100.00
21096;BME280;10706;49.036;12.112;2022-10-26T06:06:23;98004.53;;;10.18;100.00
21096;BME280;10706;49.036;12.112;2022-10-26T06:08:49;98010.25;;;10.22;100.00
21096;BME280;10706;49.036;12.112;2022-10-26T06:11:15;98020.34;;;10.20;100.00
21096;BME280;10706;49.036;12.112;2022-10-26T06:13:41;98030.31;;;10.24;100.00
21096;BME280;10706;49.036;12.112;2022-10-26T06:22:25;98030.47;;;10.29;100.00
21096;BME280;10706;49.036;12.112;2022-10-26T06:31:13;98055.91;;;10.32;100.00
21096;BME280;10706;49.036;12.112;2022-10-26T06:33:39;98069.41;;;10.37;100.00
21096;BME280;10706;49.036;12.112;2022-10-26T06:36:22;98072.44;;;10.41;100.00
21096;BME280;10706;49.036;12.112;2022-10-26T06:39:06;98072.34;;;10.47;100.00
21096;BME280;10706;49.036;12.112;2022-10-26T06:41:35;98068.63;;;10.48;100.00
21096;BME280;10706;49.036;12.112;2022-10-26T06:44:02;98064.34;;;10.47;100.00
21096;BME280;10706;49.036;12.112;2022-10-26T06:46:35;98048.81;;;10.56;100.00
21096;BME280;10706;49.036;12.112;2022-10-26T06:52:51;98036.03;;;10.58;100.00
21096;BME280;10706;49.036;12.112;2022-10-26T06:55:21;98035.97;;;10.65;100.00
21096;BME280;10706;49.036;12.112;2022-10-26T06:57:48;98022.75;;;10.70;100.00
21096;BME280;10706;49.036;12.112;2022-10-26T07:02:40;98024.81;;;10.68;100.00
21096;BME280;10706;49.036;12.112;2022-10-26T07:05:07;98015.31;;;10.72;100.00
21096;BME280;10706;49.036;12.112;2022-10-26T07:07:41;98011.13;;;10.76;100.00
21096;BME280;10706;49.036;12.112;2022-10-26T07:10:08;98012.88;;;10.82;100.00
21096;BME280;10706;49.036;12.112;2022-10-26T07:12:35;98004.06;;;10.82;100.00
21096;BME280;10706;49.036;12.112;2022-10-26T07:15:02;98017.19;;;10.83;100.00
21096;BME280;10706;49.036;12.112;2022-10-26T07:17:28;98022.53;;;10.83;99.89
21096;BME280;10706;49.036;12.112;2022-10-26T07:19:55;98032.06;;;10.79;99.36
21096;BME280;10706;49.036;12.112;2022-10-26T07:22:21;98035.16;;;10.76;99.83
21096;BME280;10706;49.036;12.112;2022-10-26T07:24:55;98033.44;;;10.82;99.77
21096;BME280;10706;49.036;12.112;2022-10-26T07:27:21;98037.97;;;10.81;99.62
21096;BME280;10706;49.036;12.112;2022-10-26T07:29:51;98039.59;;;10.82;100.00
21096;BME280;10706;49.036;12.112;2022-10-26T07:32:18;98049.34;;;10.88;99.57
21096;BME280;10706;49.036;12.112;2022-10-26T07:34:44;98039.28;;;10.91;100.00
21096;BME280;10706;49.036;12.112;2022-10-26T07:37:12;98041.69;;;10.92;99.72
21096;BME280;10706;49.036;12.112;2022-10-26T07:39:38;98029.41;;;10.91;100.00
21096;BME280;10706;49.036;12.112;2022-10-26T07:42:04;98038.94;;;10.99;100.00
21096;BME280;10706;49.036;12.112;2022-10-26T07:44:30;98045.34;;;11.09;98.33
21096;BME280;10706;49.036;12.112;2022-10-26T07:46:55;98052.06;;;11.12;97.91
21096;BME280;10706;49.036;12.112;2022-10-26T07:49:22;98084.72;;;11.14;98.37
21096;BME280;10706;49.036;12.112;2022-10-26T07:51:47;98098.44;;;11.18;97.96
21096;BME280;10706;49.036;12.112;2022-10-26T07:54:13;98086.28;;;11.34;97.68
21096;BME280;10706;49.036;12.112;2022-10-26T07:56:40;98079.53;;;11.55;98.46
21096;BME280;10706;49.036;12.112;2022-10-26T07:59:06;98072.88;;;11.69;96.70
21096;BME280;10706;49.036;12.112;2022-10-26T08:01:32;98078.47;;;11.79;95.04
21096;BME280;10706;49.036;12.112;2022-10-26T08:04:00;98086.72;;;11.78;94.52
21096;BME280;10706;49.036;12.112;2022-10-26T08:06:26;98080.53;;;11.89;94.50
21096;BME280;10706;49.036;12.112;2022-10-26T08:08:52;98077.06;;;11.89;94.60
21096;BME280;10706;49.036;12.112;2022-10-26T08:11:19;98074.38;;;11.89;94.96
21096;BME280;10706;49.036;12.112;2022-10-26T08:13:44;98080.44;;;11.84;94.57
21096;BME280;10706;49.036;12.112;2022-10-26T08:16:14;98087.09;;;11.93;94.48
21096;BME280;10706;49.036;12.112;2022-10-26T08:18:40;98086.75;;;12.01;94.28
21096;BME280;10706;49.036;12.112;2022-10-26T08:21:10;98089.72;;;12.17;93.20
21096;BME280;10706;49.036;12.112;2022-10-26T08:23:36;98091.47;;;12.11;94.07
21096;BME280;10706;49.036;12.112;2022-10-26T08:26:03;98090.41;;;12.24;93.87
21096;BME280;10706;49.036;12.112;2022-10-26T08:28:29;98088.19;;;12.21;93.09
21096;BME280;10706;49.036;12.112;2022-10-26T08:30:55;98079.88;;;12.34;92.20
21096;BME280;10706;49.036;12.112;2022-10-26T08:33:23;98083.13;;;12.36;91.79
21096;BME280;10706;49.036;12.112;2022-10-26T08:35:54;98079.88;;;12.34;92.01
21096;BME280;10706;49.036;12.112;2022-10-26T08:38:21;98076.59;;;12.44;92.11
21096;BME280;10706;49.036;12.112;2022-10-26T08:40:47;98084.63;;;12.44;91.37
21096;BME280;10706;49.036;12.112;2022-10-26T08:43:21;98089.78;;;12.34;91.69
21096;BME280;10706;49.036;12.112;2022-10-26T08:46:41;98090.88;;;12.50;91.64
21096;BME280;10706;49.036;12.112;2022-10-26T08:49:31;98090.31;;;12.48;91.01
21096;BME280;10706;49.036;12.112;2022-10-26T08:52:01;98090.88;;;12.50;91.93
21096;BME280;10706;49.036;12.112;2022-10-26T08:54:40;98092.81;;;12.66;90.00
21096;BME280;10706;49.036;12.112;2022-10-26T08:57:36;98088.75;;;12.63;91.62
21096;BME280;10706;49.036;12.112;2022-10-26T09:00:27;98092.53;;;12.96;89.47
21096;BME280;10706;49.036;12.112;2022-10-26T09:02:54;98104.34;;;12.67;89.65
21096;BME280;10706;49.036;12.112;2022-10-26T09:22:55;98092.00;;;13.11;88.46
21096;BME280;10706;49.036;12.112;2022-10-26T09:25:25;98088.19;;;13.24;87.36
21096;BME280;10706;49.036;12.112;2022-10-26T09:28:00;98091.31;;;13.33;88.13
21096;BME280;10706;49.036;12.112;2022-10-26T09:30:27;98105.53;;;13.33;86.87
21096;BME280;10706;49.036;12.112;2022-10-26T09:33:09;98099.22;;;13.11;88.03
21096;BME280;10706;49.036;12.112;2022-10-26T09:43:56;98104.72;;;13.04;88.39
21096;BME280;10706;49.036;12.112;2022-10-26T09:47:13;98110.34;;;13.02;89.64
21096;BME280;10706;49.036;12.112;2022-10-26T09:49:48;98109.63;;;13.07;88.35
21096;BME280;10706;49.036;12.112;2022-10-26T09:52:17;98113.34;;;13.06;88.66
21096;BME280;10706;49.036;12.112;2022-10-26T09:54:43;98110.94;;;13.21;88.79
21096;BME280;10706;49.036;12.112;2022-10-26T09:57:16;98119.41;;;13.30;86.87
21096;BME280;10706;49.036;12.112;2022-10-26T09:59:44;98116.91;;;13.40;86.61
21096;BME280;10706;49.036;12.112;2022-10-26T10:02:36;98118.28;;;13.43;86.92
21096;BME280;10706;49.036;12.112;2022-10-26T10:05:29;98123.81;;;13.53;85.77
21096;BME280;10706;49.036;12.112;2022-10-26T10:11:06;98119.94;;;13.83;84.64
21096;BME280;10706;49.036;12.112;2022-10-26T10:13:40;98125.19;;;14.12;83.38
21096;BME280;10706;49.036;12.112;2022-10-26T10:16:19;98121.75;;;14.16;82.35
21096;BME280;10706;49.036;12.112;2022-10-26T10:18:57;98129.00;;;14.16;82.32
21096;BME280;10706;49.036;12.112;2022-10-26T10:24:28;98131.69;;;14.16;83.28
21096;BME280;10706;49.036;12.112;2022-10-26T10:29:49;98126.59;;;14.36;82.96
21096;BME280;10706;49.036;12.112;2022-10-26T10:32:20;98121.59;;;14.45;80.57
21096;BME280;10706;49.036;12.112;2022-10-26T10:34:48;98124.72;;;14.59;80.45
21096;BME280;10706;49.036;12.112;2022-10-26T10:37:28;98124.78;;;14.42;80.89
21096;BME280;10706;49.036;12.112;2022-10-26T10:40:22;98120.69;;;14.39;80.51
21096;BME280;10706;49.036;12.112;2022-10-26T10:42:51;98120.41;;;14.36;81.31
21096;BME280;10706;49.036;12.112;2022-10-26T10:45:29;98118.72;;;14.08;82.06
21096;BME280;10706;49.036;12.112;2022-10-26T10:50:36;98122.19;;;14.08;82.83
21096;BME280;10706;49.036;12.112;2022-10-26T10:53:20;98129.25;;;14.14;82.86
21096;BME280;10706;49.036;12.112;2022-10-26T11:05:12;98140.38;;;14.62;81.26
21096;BME280;10706;49.036;12.112;2022-10-26T11:08:07;98144.72;;;14.68;81.58
21096;BME280;10706;49.036;12.112;2022-10-26T11:10:39;98139.63;;;14.50;82.55
21096;BME280;10706;49.036;12.112;2022-10-26T11:13:24;98140.06;;;14.58;82.01
21096;BME280;10706;49.036;12.112;2022-10-26T11:16:00;98144.03;;;14.78;81.49
21096;BME280;10706;49.036;12.112;2022-10-26T11:18:36;98142.81;;;14.91;81.45
21096;BME280;10706;49.036;12.112;2022-10-26T11:21:29;98141.63;;;14.82;81.46
21096;BME280;10706;49.036;12.112;2022-10-26T11:26:30;98144.44;;;15.19;79.63
21096;BME280;10706;49.036;12.112;2022-10-26T11:29:11;98137.34;;;15.08;79.88
21096;BME280;10706;49.036;12.112;2022-10-26T11:31:45;98136.41;;;14.97;79.89
21096;BME280;10706;49.036;12.112;2022-10-26T11:34:39;98143.31;;;14.88;80.72
21096;BME280;10706;49.036;12.112;2022-10-26T11:40:54;98149.81;;;14.92;80.74
21096;BME280;10706;49.036;12.112;2022-10-26T11:43:37;98156.81;;;14.93;80.57
21096;BME280;10706;49.036;12.112;2022-10-26T11:46:08;98163.31;;;14.97;79.84
21096;BME280;10706;49.036;12.112;2022-10-26T11:48:53;98167.06;;;14.96;79.63
21096;BME280;10706;49.036;12.112;2022-10-26T11:51:57;98162.94;;;14.88;80.40
21096;BME280;10706;49.036;12.112;2022-10-26T11:54:33;98166.00;;;14.97;80.78
21096;BME280;10706;49.036;12.112;2022-10-26T11:57:03;98165.03;;;15.08;80.29
21096;BME280;10706;49.036;12.112;2022-10-26T11:59:34;98173.66;;;15.10;81.85
21096;BME280;10706;49.036;12.112;2022-10-26T12:02:19;98171.84;;;14.89;83.17
21096;BME280;10706;49.036;12.112;2022-10-26T12:04:58;98167.75;;;14.86;84.13
21096;BME280;10706;49.036;12.112;2022-10-26T12:07:37;98172.53;;;15.06;81.30
21096;BME280;10706;49.036;12.112;2022-10-26T12:10:18;98174.88;;;15.25;82.04
21096;BME280;10706;49.036;12.112;2022-10-26T12:15:56;98176.78;;;15.29;80.10
21096;BME280;10706;49.036;12.112;2022-10-26T12:18:55;98186.19;;;15.27;81.42
21096;BME280;10706;49.036;12.112;2022-10-26T12:21:28;98187.31;;;15.31;81.96
21096;BME280;10706;49.036;12.112;2022-10-26T12:24:01;98184.38;;;15.32;82.06
21096;BME280;10706;49.036;12.112;2022-10-26T12:39:50;98202.59;;;15.52;81.58
21096;BME280;10706;49.036;12.112;2022-10-26T12:55:49;98200.31;;;15.71;80.70
21096;BME280;10706;49.036;12.112;2022-10-26T12:58:55;98201.06;;;15.94;82.49
21096;BME280;10706;49.036;12.112;2022-10-26T13:01:47;98198.25;;;16.16;80.96
21096;BME280;10706;49.036;12.112;2022-10-26T13:07:16;98198.59;;;16.30;80.57
21096;BME280;10706;49.036;12.112;2022-10-26T13:10:23;98199.25;;;16.52;79.31
21096;BME280;10706;49.036;12.112;2022-10-26T13:12:51;98192.19;;;16.41;78.47
21096;BME280;10706;49.036;12.112;2022-10-26T13:15:37;98191.13;;;16.42;79.12
21096;BME280;10706;49.036;12.112;2022-10-26T13:18:15;98201.22;;;16.20;78.84
21096;BME280;10706;49.036;12.112;2022-10-26T13:21:07;98193.88;;;16.05;79.89
21096;BME280;10706;49.036;12.112;2022-10-26T13:23:40;98196.06;;;16.13;81.06
21096;BME280;10706;49.036;12.112;2022-10-26T13:26:18;98189.09;;;16.17;80.49
21096;BME280;10706;49.036;12.112;2022-10-26T13:34:11;98203.66;;;16.16;80.18
21096;BME280;10706;49.036;12.112;2022-10-26T13:37:22;98209.75;;;16.01;80.79
21096;BME280;10706;49.036;12.112;2022-10-26T13:39:50;98217.97;;;15.84;80.69
21096;BME280;10706;49.036;12.112;2022-10-26T13:42:24;98219.03;;;15.56;82.44
21096;BME280;10706;49.036;12.112;2022-10-26T13:45:08;98214.69;;;15.23;84.04
21096;BME280;10706;49.036;12.112;2022-10-26T13:47:49;98220.00;;;15.18;84.41
21096;BME280;10706;49.036;12.112;2022-10-26T13:50:25;98227.66;;;15.04;84.82
21096;BME280;10706;49.036;12.112;2022-10-26T13:52:59;98217.09;;;14.97;85.85
21096;BME280;10706;49.036;12.112;2022-10-26T14:01:24;98222.47;;;14.97;86.27
21096;BME280;10706;49.036;12.112;2022-10-26T14:03:50;98218.41;;;14.94;86.11
21096;BME280;10706;49.036;12.112;2022-10-26T14:06:32;98234.84;;;14.98;85.90
21096;BME280;10706;49.036;12.112;2022-10-26T14:09:19;98240.72;;;14.95;86.36
21096;BME280;10706;49.036;12.112;2022-10-26T14:11:52;98245.63;;;14.98;86.42
21096;BME280;10706;49.036;12.112;2022-10-26T14:16:49;98250.38;;;14.91;86.91
21096;BME280;10706;49.036;12.112;2022-10-26T14:21:52;98243.16;;;14.74;87.89
21096;BME280;10706;49.036;12.112;2022-10-26T14:24:27;98235.78;;;14.65;87.50
21096;BME280;10706;49.036;12.112;2022-10-26T14:26:53;98229.41;;;14.71;87.87
21096;BME280;10706;49.036;12.112;2022-10-26T14:29:25;98235.78;;;14.65;88.17
21096;BME280;10706;49.036;12.112;2022-10-26T14:31:51;98239.22;;;14.60;87.70
21096;BME280;10706;49.036;12.112;2022-10-26T14:34:19;98244.09;;;14.63;88.03
21096;BME280;10706;49.036;12.112;2022-10-26T14:37:02;98242.44;;;14.79;87.97
21096;BME280;10706;49.036;12.112;2022-10-26T14:39:42;98241.22;;;14.92;87.10
21096;BME280;10706;49.036;12.112;2022-10-26T14:42:27;98255.44;;;14.87;85.92
21096;BME280;10706;49.036;12.112;2022-10-26T14:44:55;98258.59;;;14.84;86.17
21096;BME280;10706;49.036;12.112;2022-10-26T14:47:31;98256.00;;;14.89;85.96
21096;BME280;10706;49.036;12.112;2022-10-26T14:49:58;98256.31;;;14.93;86.36
21096;BME280;10706;49.036;12.112;2022-10-26T14:52:29;98255.13;;;14.84;85.54
21096;BME280;10706;49.036;12.112;2022-10-26T14:55:14;98263.19;;;15.06;86.09
21096;BME280;10706;49.036;12.112;2022-10-26T14:57:44;98260.59;;;15.16;85.30
21096;BME280;10706;49.036;12.112;2022-10-26T15:00:24;98259.00;;;15.15;84.67
21096;BME280;10706;49.036;12.112;2022-10-26T15:02:55;98251.25;;;14.96;84.37
21096;BME280;10706;49.036;12.112;2022-10-26T15:05:30;98254.63;;;14.87;85.66
21096;BME280;10706;49.036;12.112;2022-10-26T15:07:58;98257.41;;;14.75;85.43
21096;BME280;10706;49.036;12.112;2022-10-26T15:15:47;98272.47;;;14.37;87.03
21096;BME280;10706;49.036;12.112;2022-10-26T15:18:29;98286.63;;;14.32;88.05
21096;BME280;10706;49.036;12.112;2022-10-26T15:20:57;98282.66;;;14.18;88.68
21096;BME280;10706;49.036;12.112;2022-10-26T15:23:25;98287.78;;;14.19;88.85
21096;BME280;10706;49.036;12.112;2022-10-26T15:25:58;98285.50;;;14.11;89.21
21096;BME280;10706;49.036;12.112;2022-10-26T15:31:06;98289.72;;;13.90;89.78
21096;BME280;10706;49.036;12.112;2022-10-26T15:33:33;98285.22;;;13.79;90.62
21096;BME280;10706;49.036;12.112;2022-10-26T15:36:11;98289.03;;;13.66;91.14
21096;BME280;10706;49.036;12.112;2022-10-26T15:38:41;98294.00;;;13.57;91.29
21096;BME280;10706;49.036;12.112;2022-10-26T15:41:22;98294.38;;;13.49;92.25
21096;BME280;10706;49.036;12.112;2022-10-26T15:43:50;98299.78;;;13.37;92.48
21096;BME280;10706;49.036;12.112;2022-10-26T15:46:16;98298.75;;;13.27;92.98
21096;BME280;10706;49.036;12.112;2022-10-26T15:48:42;98303.44;;;13.19;93.74
21096;BME280;10706;49.036;12.112;2022-10-26T15:51:12;98303.34;;;13.14;94.23
21096;BME280;10706;49.036;12.112;2022-10-26T15:53:41;98317.59;;;13.03;94.72